Time;durP1;ratioP1;P1;durP2;ratioP2;P2;SDS_P1;SDS_P2;PMS_P1;PMS_P2;Temp;Humidity;BMP_temperature;BMP_pressure;BME280_temperature;BME280_humidity;BME280_pressure;Samples;Min_cycle;Max_cycle;Signal;HPM_P1;HPM_P2
2021/05/07 00:00:19;;;;;;;3.85;1.10;;;;;;;9.50;58.50;98527.83;1721212;82;21166;-57
2021/05/07 00:02:48;;;;;;;1.15;1.05;;;;;;;9.45;58.59;98528.06;1721237;83;21127;-57
2021/05/07 00:05:17;;;;;;;1.47;1.07;;;;;;;9.40;58.76;98521.98;1721638;82;21140;-58
2021/05/07 00:07:45;;;;;;;1.92;1.32;;;;;;;9.36;58.91;98522.02;1692637;83;21076;-58
2021/05/07 00:10:15;;;;;;;2.58;1.00;;;;;;;9.29;58.98;98516.65;1722359;83;21491;-58
2021/05/07 00:12:44;;;;;;;3.00;0.95;;;;;;;9.23;59.15;98517.88;1727507;82;20939;-58
2021/05/07 00:15:13;;;;;;;1.92;1.00;;;;;;;9.15;59.16;98515.35;1717923;83;21788;-58
2021/05/07 00:17:40;;;;;;;1.42;1.05;;;;;;;9.06;59.35;98514.61;1724201;82;21150;-58
2021/05/07 00:20:11;;;;;;;3.00;1.10;;;;;;;8.99;59.48;98511.55;1721765;82;21280;-58
2021/05/07 00:22:41;;;;;;;1.27;0.93;;;;;;;8.92;59.53;98509.30;1721706;83;22101;-59
2021/05/07 00:25:11;;;;;;;1.32;0.80;;;;;;;8.89;59.39;98513.13;1719133;83;21230;-57
2021/05/07 00:27:39;;;;;;;1.42;1.10;;;;;;;8.87;59.38;98507.70;1727497;82;21024;-58
2021/05/07 00:30:08;;;;;;;1.75;0.98;;;;;;;8.83;59.47;98507.25;1725886;82;21160;-57
2021/05/07 00:32:36;;;;;;;1.10;1.00;;;;;;;8.80;59.54;98507.61;1716952;83;21143;-57
2021/05/07 00:35:05;;;;;;;2.72;0.85;;;;;;;8.79;59.56;98507.78;1716726;83;21217;-58
2021/05/07 00:37:32;;;;;;;1.37;0.70;;;;;;;8.77;59.60;98499.19;1717740;83;21604;-59
2021/05/07 00:40:00;;;;;;;0.80;0.65;;;;;;;8.75;59.75;98496.73;1729627;82;21122;-58
2021/05/07 00:42:27;;;;;;;1.02;0.93;;;;;;;8.68;59.76;98496.62;1719784;83;20940;-57
2021/05/07 00:44:55;;;;;;;0.82;0.80;;;;;;;8.67;59.84;98492.34;1726831;82;21175;-58
2021/05/07 00:47:22;;;;;;;1.02;0.93;;;;;;;8.67;59.89;98483.56;1728142;82;22381;-57
2021/05/07 00:49:50;;;;;;;2.40;1.35;;;;;;;8.62;59.90;98473.51;1684147;83;20975;-57
2021/05/07 00:52:18;;;;;;;1.55;0.90;;;;;;;8.61;59.83;98470.52;1699017;83;20961;-58
2021/05/07 00:54:47;;;;;;;0.93;0.80;;;;;;;8.59;59.79;98471.71;1721167;83;21163;-58
2021/05/07 00:57:14;;;;;;;1.35;0.88;;;;;;;8.57;59.83;98477.70;1706929;82;21117;-57
2021/05/07 00:59:42;;;;;;;2.67;0.90;;;;;;;8.53;59.88;98479.89;1694564;84;21377;-57
2021/05/07 01:02:10;;;;;;;0.82;0.72;;;;;;;8.52;59.90;98479.58;1674327;85;21150;-58
2021/05/07 01:04:38;;;;;;;0.82;0.78;;;;;;;8.53;59.80;98481.20;1717135;83;21115;-58
2021/05/07 01:07:05;;;;;;;1.00;0.80;;;;;;;8.54;59.62;98482.04;1717251;83;21061;-59
2021/05/07 01:09:35;;;;;;;0.78;0.70;;;;;;;8.54;59.49;98480.22;1721237;83;21081;-59
2021/05/07 01:12:02;;;;;;;0.98;0.88;;;;;;;8.53;59.41;98471.93;1722719;82;21214;-58
2021/05/07 01:14:31;;;;;;;0.85;0.68;;;;;;;8.51;59.38;98468.64;1722717;83;21118;-58
2021/05/07 01:16:59;;;;;;;1.42;0.88;;;;;;;8.49;59.34;98473.81;1683609;83;21012;-58
2021/05/07 01:19:27;;;;;;;0.93;0.80;;;;;;;8.47;59.33;98466.02;1704755;83;21266;-57
2021/05/07 01:21:56;;;;;;;1.65;0.98;;;;;;;8.46;59.43;98460.91;1700687;83;21141;-58
2021/05/07 01:24:26;;;;;;;1.60;0.80;;;;;;;8.42;59.58;98460.97;1698060;84;21211;-58
2021/05/07 01:26:54;;;;;;;1.32;0.80;;;;;;;8.37;59.65;98458.84;1705964;83;20944;-57
2021/05/07 01:29:22;;;;;;;1.55;1.00;;;;;;;8.33;59.75;98460.22;1704035;83;21025;-57
2021/05/07 01:31:54;;;;;;;2.10;0.82;;;;;;;8.30;59.80;98458.42;1698838;84;21171;-58
2021/05/07 01:34:20;;;;;;;1.62;0.98;;;;;;;8.26;60.05;98457.94;1678893;82;21680;-58
2021/05/07 01:36:47;;;;;;;1.00;0.85;;;;;;;8.21;60.20;98456.34;1703890;83;21427;-58
2021/05/07 01:39:16;;;;;;;0.90;0.82;;;;;;;8.16;60.33;98454.70;1714935;82;21096;-58
2021/05/07 01:41:43;;;;;;;1.45;0.90;;;;;;;8.14;60.38;98451.41;1707835;83;21597;-61
2021/05/07 01:44:11;;;;;;;0.80;0.80;;;;;;;8.14;60.45;98446.11;1698125;83;21130;-58
2021/05/07 01:46:38;;;;;;;1.27;0.90;;;;;;;8.11;60.45;98437.20;1702026;83;21181;-58
2021/05/07 01:49:07;;;;;;;1.27;0.82;;;;;;;8.07;60.56;98437.25;1709439;83;21248;-57
2021/05/07 01:51:35;;;;;;;2.27;1.15;;;;;;;8.06;60.64;98437.74;1697945;82;21086;-58
2021/05/07 01:54:25;;;;;;;1.62;1.10;;;;;;;8.08;60.64;98430.44;1698074;82;21008;-58
2021/05/07 01:56:52;;;;;;;1.15;0.98;;;;;;;8.09;60.60;98427.29;1692942;82;20989;-57
2021/05/07 01:59:21;;;;;;;1.15;1.00;;;;;;;8.07;60.50;98420.86;1712250;83;21067;-58
2021/05/07 02:01:48;;;;;;;5.03;1.30;;;;;;;8.05;60.43;98417.58;1702492;83;22888;-59
2021/05/07 02:04:15;;;;;;;0.88;0.82;;;;;;;8.02;60.49;98422.39;1691387;83;21168;-59
2021/05/07 02:06:43;;;;;;;1.20;0.93;;;;;;;7.99;60.52;98420.10;1691615;82;21632;-58
2021/05/07 02:09:13;;;;;;;1.45;0.95;;;;;;;7.96;60.46;98421.28;1711463;83;21216;-58
2021/05/07 02:11:41;;;;;;;1.98;1.25;;;;;;;7.96;60.43;98416.48;1681448;82;21065;-57
2021/05/07 02:14:09;;;;;;;1.60;1.20;;;;;;;7.96;60.47;98417.31;1693673;83;21225;-59
2021/05/07 02:16:37;;;;;;;1.72;0.95;;;;;;;7.94;60.66;98418.49;1683597;82;21122;-58
2021/05/07 02:19:08;;;;;;;1.25;1.00;;;;;;;7.90;60.72;98407.95;1713968;82;21151;-59
2021/05/07 02:21:36;;;;;;;1.65;1.10;;;;;;;7.89;60.73;98406.30;1713607;83;21168;-58
2021/05/07 02:24:05;;;;;;;1.72;0.95;;;;;;;7.86;60.69;98407.97;1677577;83;21196;-59
2021/05/07 02:26:33;;;;;;;1.45;1.10;;;;;;;7.84;60.74;98408.16;1684623;83;21391;-58
2021/05/07 02:29:02;;;;;;;1.57;1.10;;;;;;;7.84;60.71;98409.98;1710656;83;21494;-58
2021/05/07 02:31:30;;;;;;;1.77;1.17;;;;;;;7.80;60.74;98402.88;1684015;83;21140;-59
2021/05/07 02:33:57;;;;;;;1.42;0.98;;;;;;;7.78;60.80;98415.48;1683467;83;21215;-58
2021/05/07 02:36:25;;;;;;;1.65;1.17;;;;;;;7.79;60.74;98411.02;1718727;82;21124;-58
2021/05/07 02:38:55;;;;;;;1.82;1.12;;;;;;;7.78;60.74;98415.48;1685993;83;21271;-58
2021/05/07 02:41:24;;;;;;;1.75;1.35;;;;;;;7.74;60.81;98416.85;1698306;82;21076;-59
2021/05/07 02:43:51;;;;;;;2.60;1.30;;;;;;;7.71;60.93;98415.05;1668939;83;21049;-58
2021/05/07 02:46:20;;;;;;;2.85;1.65;;;;;;;7.67;61.07;98421.68;1702870;83;21108;-59
2021/05/07 02:48:50;;;;;;;1.40;1.10;;;;;;;7.65;61.17;98421.05;1717156;83;21144;-57
2021/05/07 02:51:18;;;;;;;1.90;1.42;;;;;;;7.64;61.28;98418.09;1681761;83;22258;-57
2021/05/07 02:53:48;;;;;;;1.98;1.10;;;;;;;7.64;61.31;98420.74;1693395;83;21186;-58
2021/05/07 02:56:16;;;;;;;1.52;1.20;;;;;;;7.65;61.36;98413.10;1723297;82;21117;-58
2021/05/07 02:58:44;;;;;;;4.42;1.65;;;;;;;7.67;61.38;98408.45;1733167;82;21075;-59
2021/05/07 03:01:12;;;;;;;2.90;1.40;;;;;;;7.70;61.37;98420.01;1723683;82;21116;-58
2021/05/07 03:03:40;;;;;;;2.67;1.37;;;;;;;7.73;61.35;98428.43;1712041;81;21415;-58
2021/05/07 03:06:07;;;;;;;4.97;1.47;;;;;;;7.78;61.31;98435.83;1744090;81;21168;-58
2021/05/07 03:08:35;;;;;;;3.02;1.67;;;;;;;7.82;61.35;98432.64;1748771;81;21016;-57
2021/05/07 03:11:03;;;;;;;2.92;1.60;;;;;;;7.86;61.31;98437.09;1745228;81;21605;-57
2021/05/07 03:13:30;;;;;;;4.33;1.82;;;;;;;7.97;61.20;98439.33;1735820;81;21174;-58
2021/05/07 03:15:58;;;;;;;2.77;1.22;;;;;;;8.11;60.83;98443.81;1719184;82;22189;-60
2021/05/07 03:18:26;;;;;;;6.03;2.05;;;;;;;8.30;60.32;98451.30;1749151;81;21158;-57
2021/05/07 03:20:55;;;;;;;8.43;2.02;;;;;;;8.46;59.90;98452.96;1706921;82;21168;-58
2021/05/07 03:23:22;;;;;;;2.98;1.80;;;;;;;8.51;59.46;98451.91;1745486;82;21606;-58
2021/05/07 03:25:51;;;;;;;3.80;1.98;;;;;;;8.52;59.24;98445.13;1743312;81;21491;-60
2021/05/07 03:28:19;;;;;;;2.22;1.82;;;;;;;8.54;59.02;98448.41;1725342;81;21206;-58
2021/05/07 03:30:47;;;;;;;3.58;1.82;;;;;;;8.50;59.03;98443.12;1703973;83;21029;-58
2021/05/07 03:33:15;;;;;;;6.17;1.85;;;;;;;8.49;59.04;98446.80;1693960;84;21595;-58
2021/05/07 03:35:43;;;;;;;1.87;1.47;;;;;;;8.42;59.22;98447.19;1692138;84;21517;-58
2021/05/07 03:38:11;;;;;;;5.30;1.70;;;;;;;8.38;59.29;98447.25;1670411;84;21069;-59
2021/05/07 03:40:39;;;;;;;7.40;1.67;;;;;;;8.33;59.44;98450.94;1669575;85;21431;-60
2021/05/07 03:43:07;;;;;;;2.85;2.05;;;;;;;8.31;59.56;98451.63;1705227;82;21132;-60
2021/05/07 03:45:37;;;;;;;3.62;2.20;;;;;;;8.29;59.72;98456.27;1680086;82;21164;-60
2021/05/07 03:48:17;;;;;;;8.95;2.17;;;;;;;8.30;59.79;98448.65;1677792;83;21037;-60
2021/05/07 03:50:45;;;;;;;3.95;1.87;;;;;;;8.31;59.90;98445.00;1704063;82;21107;-58
2021/05/07 03:53:13;;;;;;;6.08;1.98;;;;;;;8.33;59.78;98437.69;1674608;82;21788;-59
2021/05/07 03:55:41;;;;;;;4.72;1.77;;;;;;;8.36;59.89;98446.61;1697895;83;21140;-59
2021/05/07 03:58:09;;;;;;;2.83;1.92;;;;;;;8.37;60.15;98438.96;1704886;83;21235;-58
2021/05/07 04:00:37;;;;;;;7.50;2.40;;;;;;;8.35;60.26;98425.08;1685569;84;21061;-58
2021/05/07 04:03:05;;;;;;;3.05;2.10;;;;;;;8.34;60.44;98448.59;1677026;83;21132;-60
2021/05/07 04:05:33;;;;;;;7.78;2.33;;;;;;;8.31;60.78;98442.36;1687030;84;21291;-59
2021/05/07 04:10:39;;;;;;;3.02;1.90;;;;;;;8.27;60.81;98441.55;1708080;82;21073;-58
2021/05/07 04:15:32;;;;;;;6.90;2.30;;;;;;;8.28;60.67;98453.80;1737568;81;21115;-58
2021/05/07 04:17:59;;;;;;;7.90;2.05;;;;;;;8.29;60.61;98453.61;1743806;81;21489;-57
2021/05/07 04:20:26;;;;;;;4.40;1.90;;;;;;;8.31;60.42;98456.93;1737389;81;21180;-59
2021/05/07 04:22:54;;;;;;;4.78;2.12;;;;;;;8.34;60.44;98460.52;1693972;82;21144;-59
2021/05/07 04:25:21;;;;;;;5.33;1.77;;;;;;;8.33;60.46;98459.39;1679131;83;21586;-60
2021/05/07 04:27:49;;;;;;;6.05;2.10;;;;;;;8.36;60.35;98460.36;1676106;83;21159;-59
2021/05/07 04:30:18;;;;;;;6.10;1.90;;;;;;;8.41;60.32;98456.66;1670711;83;21248;-58
2021/05/07 04:32:45;;;;;;;2.62;1.77;;;;;;;8.45;60.26;98450.80;1692785;83;21688;-61
2021/05/07 04:35:13;;;;;;;5.55;2.15;;;;;;;8.50;60.12;98449.76;1690802;82;20975;-62
2021/05/07 04:37:43;;;;;;;6.28;2.15;;;;;;;8.56;59.88;98455.67;1715197;82;21587;-61
2021/05/07 04:40:12;;;;;;;5.28;1.82;;;;;;;8.62;59.75;98454.95;1750145;81;21049;-62
2021/05/07 04:42:40;;;;;;;4.17;2.22;;;;;;;8.68;59.69;98455.52;1740137;81;21376;-61
2021/05/07 04:45:10;;;;;;;5.00;2.20;;;;;;;8.73;59.60;98452.34;1718226;81;21139;-58
2021/05/07 04:47:37;;;;;;;6.12;2.60;;;;;;;8.78;59.43;98451.30;1743544;81;21164;-56
2021/05/07 04:50:07;;;;;;;3.25;2.10;;;;;;;8.83;59.38;98454.22;1742576;81;21119;-58
2021/05/07 04:52:35;;;;;;;7.12;2.47;;;;;;;8.89;59.19;98450.80;1742863;81;21551;-59
2021/05/07 04:55:05;;;;;;;5.40;2.47;;;;;;;8.95;59.05;98457.20;1741891;81;21232;-56
2021/05/07 04:57:32;;;;;;;4.50;2.17;;;;;;;9.02;58.92;98462.11;1742133;81;21485;-58
2021/05/07 05:00:00;;;;;;;12.70;2.83;;;;;;;9.09;58.84;98460.36;1728930;81;21122;-58
2021/05/07 05:02:29;;;;;;;6.33;2.15;;;;;;;9.14;58.81;98464.11;1691414;83;21178;-59
2021/05/07 05:04:58;;;;;;;5.55;1.50;;;;;;;9.18;58.61;98457.41;1698345;82;21137;-59
2021/05/07 05:07:26;;;;;;;5.25;2.37;;;;;;;9.23;58.62;98466.12;1661524;84;21222;-57
2021/05/07 05:09:55;;;;;;;4.12;2.10;;;;;;;9.26;58.85;98460.45;1670827;84;21006;-59
2021/05/07 05:12:23;;;;;;;4.53;2.42;;;;;;;9.30;59.02;98457.76;1662859;84;21578;-60
2021/05/07 05:14:52;;;;;;;5.15;2.45;;;;;;;9.35;58.93;98471.30;1694651;82;21062;-62
2021/05/07 05:17:20;;;;;;;4.30;1.87;;;;;;;9.40;59.12;98464.09;1668861;86;21168;-60
2021/05/07 05:19:47;;;;;;;4.20;2.22;;;;;;;9.45;59.35;98457.21;1698605;84;21508;-61
2021/05/07 05:22:15;;;;;;;3.55;1.95;;;;;;;9.50;59.79;98452.16;1639767;86;21570;-60
2021/05/07 05:24:44;;;;;;;4.30;2.20;;;;;;;9.56;59.93;98462.03;1640762;86;21095;-60
2021/05/07 05:27:12;;;;;;;7.17;2.30;;;;;;;9.66;60.06;98459.89;1698508;84;21116;-60
2021/05/07 05:29:39;;;;;;;3.02;2.15;;;;;;;9.78;59.78;98458.37;1668974;86;21171;-60
2021/05/07 05:32:07;;;;;;;3.05;1.72;;;;;;;9.90;59.49;98454.71;1668881;86;22397;-61
2021/05/07 05:34:38;;;;;;;2.52;1.87;;;;;;;10.01;59.48;98447.53;1668896;86;21156;-60
2021/05/07 05:37:08;;;;;;;2.98;1.90;;;;;;;10.15;59.22;98440.53;1698674;84;21122;-62
2021/05/07 05:39:36;;;;;;;2.70;2.15;;;;;;;10.36;58.90;98436.50;1668901;86;21171;-61
2021/05/07 05:42:05;;;;;;;4.53;2.00;;;;;;;10.61;58.67;98428.38;1698581;84;21151;-62
2021/05/07 05:44:34;;;;;;;2.62;1.60;;;;;;;10.95;58.24;98431.55;1668966;86;21214;-60
2021/05/07 05:47:08;;;;;;;5.97;1.90;;;;;;;11.33;57.44;98425.23;1668893;86;21195;-66
2021/05/07 05:49:36;;;;;;;4.90;1.80;;;;;;;11.71;56.70;98413.05;1669023;85;21182;-60
2021/05/07 05:52:05;;;;;;;4.00;1.50;;;;;;;12.09;55.78;98414.13;1668877;84;21269;-60
2021/05/07 05:54:32;;;;;;;2.60;1.87;;;;;;;12.37;54.80;98402.71;1668932;84;21230;-60
2021/05/07 05:57:00;;;;;;;1.82;1.62;;;;;;;12.54;54.34;98398.28;1703083;83;21422;-62
2021/05/07 05:59:29;;;;;;;4.28;1.70;;;;;;;12.63;53.75;98396.50;1668895;86;20989;-63
2021/05/07 06:01:57;;;;;;;1.85;1.60;;;;;;;12.78;53.43;98393.58;1696752;84;21597;-61
2021/05/07 06:04:24;;;;;;;2.22;1.25;;;;;;;13.09;52.60;98386.22;1692070;84;21600;-61
2021/05/07 06:06:52;;;;;;;3.52;1.20;;;;;;;13.43;51.76;98380.47;1722478;83;21067;-61
2021/05/07 06:09:20;;;;;;;1.62;1.15;;;;;;;13.76;50.36;98372.25;1698602;84;21362;-60
2021/05/07 06:11:47;;;;;;;2.20;1.27;;;;;;;14.12;49.35;98369.17;1698502;84;21585;-61
2021/05/07 06:14:15;;;;;;;2.50;1.10;;;;;;;14.59;48.30;98360.20;1668941;86;21230;-62
2021/05/07 06:16:44;;;;;;;1.00;0.98;;;;;;;14.97;47.38;98353.26;1668958;85;21119;-61
2021/05/07 06:19:12;;;;;;;1.82;1.00;;;;;;;15.17;46.24;98349.82;1698670;84;21079;-60
2021/05/07 06:21:39;;;;;;;1.75;1.00;;;;;;;15.15;46.08;98344.67;1668974;86;21285;-62
2021/05/07 06:24:09;;;;;;;2.60;0.85;;;;;;;15.25;45.47;98344.16;1698519;84;21055;-61
2021/05/07 06:26:37;;;;;;;2.05;1.25;;;;;;;15.55;45.24;98334.25;1669013;86;21167;-61
2021/05/07 06:29:05;;;;;;;2.10;1.30;;;;;;;15.97;44.46;98333.16;1698560;82;21111;-62
2021/05/07 06:31:34;;;;;;;4.53;1.05;;;;;;;16.43;43.40;98328.83;1669060;86;21689;-61
2021/05/07 06:34:02;;;;;;;1.60;1.05;;;;;;;17.00;42.29;98319.85;1698589;82;21384;-61
2021/05/07 06:36:31;;;;;;;5.50;1.30;;;;;;;17.39;41.22;98306.63;1668873;86;21001;-61
2021/05/07 06:38:59;;;;;;;1.87;1.10;;;;;;;17.62;40.86;98301.14;1698540;83;21004;-61
2021/05/07 06:41:28;;;;;;;2.08;0.90;;;;;;;17.69;40.11;98299.09;1668869;86;21005;-61
2021/05/07 06:43:56;;;;;;;3.20;1.10;;;;;;;17.61;39.95;98299.50;1669017;86;21211;-59
2021/05/07 06:46:24;;;;;;;2.92;1.07;;;;;;;17.78;39.53;98305.72;1698556;84;21396;-60
2021/05/07 06:48:52;;;;;;;7.33;1.92;;;;;;;18.21;39.33;98305.84;1668936;86;21188;-60
2021/05/07 06:51:20;;;;;;;4.33;1.30;;;;;;;18.61;37.25;98313.70;1669022;84;21219;-60
2021/05/07 06:53:47;;;;;;;3.15;0.90;;;;;;;18.61;36.24;98310.19;1698560;84;21106;-60
2021/05/07 06:56:20;;;;;;;2.95;1.22;;;;;;;18.37;35.49;98307.69;1668955;85;21558;-60
2021/05/07 06:58:44;;;;;;;5.03;1.47;;;;;;;18.06;36.44;98323.64;1727680;82;21808;-59
2021/05/07 07:01:12;;;;;;;3.92;0.80;;;;;;;17.66;36.76;98312.50;1682545;83;21156;-60
2021/05/07 07:03:40;;;;;;;2.52;1.00;;;;;;;17.11;37.01;98310.94;1670373;84;21120;-59
2021/05/07 07:06:08;;;;;;;2.37;1.00;;;;;;;16.61;37.26;98307.23;1670285;84;21162;-58
2021/05/07 07:08:37;;;;;;;1.52;1.05;;;;;;;16.14;37.91;98315.83;1688293;84;21594;-67
2021/05/07 07:11:05;;;;;;;1.87;1.22;;;;;;;15.56;39.00;98313.11;1714622;82;21405;-68
2021/05/07 07:13:35;;;;;;;1.20;0.93;;;;;;;15.09;39.82;98305.94;1680884;84;21643;-69
2021/05/07 07:16:04;;;;;;;6.42;1.40;;;;;;;14.77;40.61;98295.44;1740563;82;21166;-66
2021/05/07 07:18:31;;;;;;;1.35;0.90;;;;;;;14.54;41.41;98285.95;1737520;81;21065;-69
2021/05/07 07:20:59;;;;;;;2.05;1.00;;;;;;;14.36;41.96;98306.02;1739145;82;21577;-67
2021/05/07 07:23:27;;;;;;;5.42;1.30;;;;;;;14.19;42.61;98299.05;1722164;82;21208;-66
2021/05/07 07:25:55;;;;;;;5.58;1.17;;;;;;;14.02;43.38;98297.17;1701384;83;21156;-65
2021/05/07 07:28:22;;;;;;;4.22;0.88;;;;;;;13.80;44.02;98296.75;1670223;84;21091;-69
2021/05/07 07:30:50;;;;;;;1.45;1.12;;;;;;;13.64;44.29;98287.94;1709181;82;21630;-67
2021/05/07 07:33:18;;;;;;;2.17;1.12;;;;;;;13.53;45.04;98288.66;1692995;83;21148;-66
2021/05/07 07:35:45;;;;;;;2.75;1.27;;;;;;;13.43;45.79;98306.49;1678090;84;21924;-66
2021/05/07 07:38:13;;;;;;;3.60;1.02;;;;;;;13.35;45.72;98305.93;1670263;84;21531;-66
2021/05/07 07:40:40;;;;;;;2.60;1.00;;;;;;;13.28;45.61;98309.17;1682441;85;21203;-69
2021/05/07 07:43:08;;;;;;;1.75;0.95;;;;;;;13.15;45.94;98304.73;1670191;84;21034;-67
2021/05/07 07:45:36;;;;;;;2.75;0.90;;;;;;;12.99;46.59;98310.54;1670181;84;21304;-69
2021/05/07 07:48:05;;;;;;;3.72;1.37;;;;;;;12.82;47.45;98326.75;1670261;84;22290;-67
2021/05/07 07:50:33;;;;;;;6.62;1.20;;;;;;;12.62;48.27;98336.16;1683290;84;21124;-67
2021/05/07 07:53:00;;;;;;;3.65;1.50;;;;;;;12.41;48.61;98331.09;1678281;84;21140;-67
2021/05/07 07:55:28;;;;;;;6.25;1.30;;;;;;;12.27;50.19;98336.16;1686639;84;21210;-66
2021/05/07 07:57:55;;;;;;;5.65;1.57;;;;;;;12.09;50.70;98331.48;1661795;84;21097;-65
2021/05/07 08:00:23;;;;;;;0.93;0.88;;;;;;;11.96;50.65;98319.50;1744879;82;22200;-68
2021/05/07 08:02:52;;;;;;;3.83;2.50;;;;;;;11.92;51.16;98315.59;1732927;82;21144;-66
2021/05/07 08:05:20;;;;;;;3.40;1.60;;;;;;;11.88;51.24;98306.90;1689650;81;21647;-66
2021/05/07 08:07:50;;;;;;;4.75;1.60;;;;;;;11.84;51.45;98297.16;1688856;82;21140;-67
2021/05/07 08:10:18;;;;;;;1.65;1.30;;;;;;;11.78;51.56;98289.47;1726811;82;21586;-66
2021/05/07 08:12:48;;;;;;;2.75;1.42;;;;;;;11.69;51.85;98269.91;1725850;82;21382;-66
2021/05/07 08:15:20;;;;;;;3.92;1.60;;;;;;;11.60;52.48;98269.27;1753561;81;21049;-67
2021/05/07 08:17:48;;;;;;;7.12;1.25;;;;;;;11.56;52.34;98267.22;1732871;82;21034;-68
2021/05/07 08:20:16;;;;;;;1.45;1.10;;;;;;;11.52;52.76;98267.34;1702253;82;20944;-69
2021/05/07 08:22:45;;;;;;;1.20;0.98;;;;;;;11.45;52.73;98260.67;1721897;81;21551;-66
2021/05/07 08:25:14;;;;;;;5.35;1.20;;;;;;;11.39;53.36;98252.19;1713438;82;21468;-68
2021/05/07 08:27:43;;;;;;;4.25;1.30;;;;;;;11.37;53.56;98261.38;1725257;81;21113;-66
2021/05/07 08:30:12;;;;;;;2.12;1.45;;;;;;;11.36;53.88;98247.27;1711143;82;21112;-67
2021/05/07 08:32:40;;;;;;;1.65;1.00;;;;;;;11.36;54.00;98254.43;1702304;81;21153;-68
2021/05/07 08:35:11;;;;;;;1.98;1.15;;;;;;;11.36;54.15;98249.93;1725766;81;21584;-67
2021/05/07 08:37:45;;;;;;;2.70;1.15;;;;;;;11.35;54.10;98247.45;1725026;82;21346;-67
2021/05/07 08:40:17;;;;;;;2.02;1.02;;;;;;;11.32;54.51;98249.19;1689005;82;21064;-66
2021/05/07 08:42:44;;;;;;;5.10;1.50;;;;;;;11.32;54.38;98247.86;1688933;81;21070;-67
2021/05/07 08:45:13;;;;;;;2.70;1.12;;;;;;;11.31;54.79;98258.22;1688812;82;20924;-66
2021/05/07 08:47:44;;;;;;;2.00;1.30;;;;;;;11.27;54.91;98256.47;1718811;82;21121;-67
2021/05/07 08:52:54;;;;;;;2.67;1.50;;;;;;;11.26;55.02;98260.17;1637838;86;21236;-69
2021/05/07 08:55:22;;;;;;;1.40;1.20;;;;;;;11.30;54.52;98253.91;1702261;82;20981;-71
2021/05/07 08:57:52;;;;;;;5.17;1.42;;;;;;;11.29;54.71;98260.27;1722970;82;21075;-68
2021/05/07 09:00:21;;;;;;;1.72;1.47;;;;;;;11.24;54.65;98250.21;1723513;82;21152;-63
2021/05/07 09:02:49;;;;;;;3.10;1.85;;;;;;;11.26;54.66;98251.36;1702454;82;22328;-70
2021/05/07 09:05:30;;;;;;;3.58;1.60;;;;;;;11.33;54.49;98241.52;1724036;82;21786;-60
2021/05/07 09:07:57;;;;;;;4.47;1.70;;;;;;;11.39;54.37;98242.05;1700464;82;21231;-61
2021/05/07 09:10:45;;;;;;;2.75;1.40;;;;;;;11.47;54.05;98239.18;1732246;82;21175;-60
2021/05/07 09:13:16;;;;;;;1.42;1.25;;;;;;;11.54;53.94;98231.48;1731267;82;21104;-65
2021/05/07 09:15:50;;;;;;;2.52;1.57;;;;;;;11.60;54.17;98220.52;1732128;81;20947;-60
2021/05/07 09:18:18;;;;;;;1.75;1.20;;;;;;;11.60;54.51;98225.31;1732802;82;21553;-61
2021/05/07 09:20:50;;;;;;;1.85;1.32;;;;;;;11.59;54.64;98232.19;1706194;82;21112;-61
2021/05/07 09:23:18;;;;;;;3.12;1.65;;;;;;;11.59;54.58;98223.69;1717631;82;21179;-61
2021/05/07 09:25:52;;;;;;;2.30;1.47;;;;;;;11.58;54.80;98227.88;1705041;82;21105;-59
2021/05/07 09:28:20;;;;;;;3.95;1.52;;;;;;;11.58;54.78;98218.05;1719762;82;21355;-62
2021/05/07 09:30:47;;;;;;;2.60;1.70;;;;;;;11.64;54.79;98211.91;1724349;82;21156;-59
2021/05/07 09:33:17;;;;;;;3.85;2.00;;;;;;;11.71;53.89;98197.26;1702545;82;20961;-60
2021/05/07 09:35:45;;;;;;;4.12;1.37;;;;;;;11.79;53.92;98199.70;1702480;82;20962;-60
2021/05/07 09:38:16;;;;;;;2.77;1.50;;;;;;;11.89;54.12;98192.63;1711046;82;21171;-59
2021/05/07 09:40:45;;;;;;;1.65;1.27;;;;;;;11.98;53.45;98201.51;1702713;82;21155;-59
2021/05/07 09:43:20;;;;;;;4.30;1.60;;;;;;;12.06;53.32;98202.61;1724735;82;21159;-59
2021/05/07 09:45:49;;;;;;;2.35;1.45;;;;;;;12.10;52.83;98195.81;1721450;82;21128;-60
2021/05/07 09:48:25;;;;;;;1.85;1.45;;;;;;;12.14;52.81;98216.22;1704819;82;21040;-60
2021/05/07 09:51:02;;;;;;;3.27;1.82;;;;;;;12.13;52.54;98211.39;1702408;82;21064;-58
2021/05/07 09:53:37;;;;;;;1.90;1.55;;;;;;;12.14;52.30;98202.38;1639527;86;20982;-58
2021/05/07 09:56:14;;;;;;;1.95;1.67;;;;;;;12.13;52.31;98183.91;1705242;84;21086;-59
2021/05/07 09:58:42;;;;;;;4.28;2.12;;;;;;;12.13;52.27;98188.73;1705152;84;21575;-59
2021/05/07 10:01:10;;;;;;;2.58;1.47;;;;;;;12.14;52.63;98185.56;1705509;84;21167;-61
2021/05/07 10:03:42;;;;;;;2.60;1.87;;;;;;;12.18;52.53;98184.92;1705585;84;20939;-59
2021/05/07 10:06:10;;;;;;;2.87;1.77;;;;;;;12.23;52.22;98173.11;1705404;84;21389;-60
2021/05/07 10:08:45;;;;;;;2.55;1.52;;;;;;;12.28;52.29;98179.13;1704975;84;21204;-60
2021/05/07 10:11:14;;;;;;;6.65;1.70;;;;;;;12.32;51.17;98168.36;1705447;82;20967;-60
2021/05/07 10:13:43;;;;;;;4.10;1.77;;;;;;;12.36;51.15;98158.38;1704907;84;21093;-60
2021/05/07 10:16:11;;;;;;;1.98;1.40;;;;;;;12.46;51.17;98160.59;1704913;84;21153;-60
2021/05/07 10:18:41;;;;;;;3.10;1.40;;;;;;;12.52;51.46;98162.39;1704818;84;21033;-61
2021/05/07 10:21:11;;;;;;;5.12;1.75;;;;;;;12.63;51.49;98146.22;1704824;84;21038;-60
2021/05/07 10:23:52;;;;;;;2.40;1.70;;;;;;;12.73;51.18;98140.71;1704952;83;21018;-60
2021/05/07 10:26:33;;;;;;;3.58;1.87;;;;;;;12.88;51.37;98141.72;1705513;83;21561;-59
2021/05/07 10:29:02;;;;;;;3.12;1.57;;;;;;;13.03;49.75;98148.37;1704424;84;21518;-59
2021/05/07 10:31:29;;;;;;;7.55;1.60;;;;;;;13.13;48.95;98150.61;1704138;84;22309;-57
2021/05/07 10:34:00;;;;;;;3.67;1.77;;;;;;;13.16;48.77;98138.67;1704871;84;21601;-60
2021/05/07 10:36:42;;;;;;;3.70;1.52;;;;;;;13.16;48.59;98124.81;1707188;82;21587;-62
2021/05/07 10:39:29;;;;;;;2.42;1.10;;;;;;;13.21;48.62;98121.47;1704921;84;20904;-60
2021/05/07 10:42:01;;;;;;;2.60;1.37;;;;;;;13.37;48.58;98120.91;1704938;83;21188;-59
2021/05/07 10:44:41;;;;;;;2.33;1.40;;;;;;;13.57;48.50;98112.99;1704644;84;39501;-59
2021/05/07 10:47:13;;;;;;;3.12;1.27;;;;;;;13.81;47.64;98127.84;1705293;83;21200;-59
2021/05/07 10:49:44;;;;;;;2.83;1.45;;;;;;;13.93;47.28;98140.75;1704829;84;21207;-59
2021/05/07 10:52:13;;;;;;;2.85;1.40;;;;;;;13.94;47.12;98143.73;1709428;83;21139;-60
2021/05/07 10:54:45;;;;;;;2.30;1.47;;;;;;;13.90;47.00;98120.63;1692463;83;21013;-60
2021/05/07 10:57:22;;;;;;;3.10;1.40;;;;;;;13.89;47.30;98110.17;1687344;83;22006;-60
2021/05/07 11:00:03;;;;;;;3.12;1.25;;;;;;;13.93;47.34;98109.48;1690791;83;21203;-60
2021/05/07 11:02:51;;;;;;;1.65;1.30;;;;;;;14.02;47.29;98112.16;1675009;83;21054;-61
2021/05/07 11:05:43;;;;;;;1.80;1.30;;;;;;;14.11;47.03;98120.16;1708869;83;21128;-60
2021/05/07 11:08:10;;;;;;;5.10;1.45;;;;;;;14.24;47.25;98101.78;1687299;82;21144;-60
2021/05/07 11:10:39;;;;;;;1.95;1.50;;;;;;;14.48;47.18;98097.36;1688219;83;21022;-60
2021/05/07 11:13:07;;;;;;;4.95;1.72;;;;;;;14.73;46.19;98096.69;1706821;83;21151;-60
2021/05/07 11:15:37;;;;;;;3.12;1.62;;;;;;;14.92;45.85;98101.41;1707184;83;21066;-60
2021/05/07 11:18:10;;;;;;;4.58;1.75;;;;;;;15.10;45.37;98097.30;1715648;82;21138;-59
2021/05/07 11:20:42;;;;;;;2.90;1.60;;;;;;;15.30;44.99;98082.50;1711778;82;21180;-59
2021/05/07 11:23:11;;;;;;;3.02;1.60;;;;;;;15.55;44.73;98083.64;1716710;81;21384;-61
2021/05/07 11:25:39;;;;;;;4.33;1.57;;;;;;;15.75;44.20;98078.70;1717514;83;21006;-61
2021/05/07 11:28:18;;;;;;;8.13;2.50;;;;;;;15.86;43.87;98079.72;1717132;82;21153;-60
2021/05/07 11:30:56;;;;;;;3.37;1.95;;;;;;;15.89;43.75;98077.39;1694606;81;21002;-59
2021/05/07 11:33:30;;;;;;;2.30;1.80;;;;;;;15.93;43.75;98068.32;1687341;83;21183;-61
2021/05/07 11:36:10;;;;;;;4.03;1.80;;;;;;;16.00;43.42;98068.50;1708618;83;21311;-60
2021/05/07 11:38:42;;;;;;;4.03;2.08;;;;;;;15.99;43.65;98057.47;1687398;83;21627;-59
2021/05/07 11:41:24;;;;;;;8.20;1.85;;;;;;;16.10;43.54;98046.41;1691091;83;21658;-60
2021/05/07 11:43:54;;;;;;;2.45;1.45;;;;;;;16.19;43.38;98048.98;1701263;83;21595;-59
2021/05/07 11:46:22;;;;;;;2.02;1.37;;;;;;;16.26;43.14;98059.06;1687420;83;21578;-59
2021/05/07 11:48:51;;;;;;;2.42;1.20;;;;;;;16.25;43.02;98059.28;1687492;83;21398;-60
2021/05/07 11:51:22;;;;;;;2.70;1.12;;;;;;;16.23;43.21;98060.06;1687423;83;21050;-61
2021/05/07 11:53:58;;;;;;;1.87;1.42;;;;;;;16.20;43.36;98060.53;1700358;83;21115;-59